sensor_id;sensor_type;location;lat;lon;timestamp;P1;durP1;ratioP1;P2;durP2;ratioP2
76640;SDS011;65538;50.798;6.064;2023-03-01T00:01:53;16.77;;;7.97;;
76640;SDS011;65538;50.798;6.064;2023-03-01T00:04:19;12.60;;;6.90;;
76640;SDS011;65538;50.798;6.064;2023-03-01T00:06:44;17.00;;;7.67;;
76640;SDS011;65538;50.798;6.064;2023-03-01T00:09:11;14.90;;;7.72;;
76640;SDS011;65538;50.798;6.064;2023-03-01T00:11:36;14.73;;;7.15;;
76640;SDS011;65538;50.798;6.064;2023-03-01T00:14:02;14.20;;;8.00;;
76640;SDS011;65538;50.798;6.064;2023-03-01T00:16:31;17.67;;;7.57;;
76640;SDS011;65538;50.798;6.064;2023-03-01T00:18:58;16.08;;;7.63;;
76640;SDS011;65538;50.798;6.064;2023-03-01T00:21:24;15.40;;;7.38;;
76640;SDS011;65538;50.798;6.064;2023-03-01T00:23:49;16.80;;;7.75;;
76640;SDS011;65538;50.798;6.064;2023-03-01T00:26:15;18.73;;;9.50;;
76640;SDS011;65538;50.798;6.064;2023-03-01T00:28:41;17.52;;;7.88;;
76640;SDS011;65538;50.798;6.064;2023-03-01T00:31:08;15.73;;;7.75;;
76640;SDS011;65538;50.798;6.064;2023-03-01T00:33:33;19.88;;;9.35;;
76640;SDS011;65538;50.798;6.064;2023-03-01T00:35:59;16.30;;;7.63;;
76640;SDS011;65538;50.798;6.064;2023-03-01T00:38:24;17.42;;;8.38;;
76640;SDS011;65538;50.798;6.064;2023-03-01T00:40:49;19.37;;;8.80;;
76640;SDS011;65538;50.798;6.064;2023-03-01T00:43:15;17.07;;;8.17;;
76640;SDS011;65538;50.798;6.064;2023-03-01T00:45:40;17.00;;;8.40;;
76640;SDS011;65538;50.798;6.064;2023-03-01T00:48:05;13.53;;;7.33;;
76640;SDS011;65538;50.798;6.064;2023-03-01T00:50:31;17.00;;;8.33;;
76640;SDS011;65538;50.798;6.064;2023-03-01T00:52:56;14.27;;;7.10;;
76640;SDS011;65538;50.798;6.064;2023-03-01T00:55:21;16.03;;;7.80;;
76640;SDS011;65538;50.798;6.064;2023-03-01T00:57:47;13.68;;;7.75;;
76640;SDS011;65538;50.798;6.064;2023-03-01T01:00:12;16.20;;;7.85;;
76640;SDS011;65538;50.798;6.064;2023-03-01T01:02:37;17.57;;;6.93;;
76640;SDS011;65538;50.798;6.064;2023-03-01T01:05:03;17.03;;;7.83;;
76640;SDS011;65538;50.798;6.064;2023-03-01T01:07:28;14.80;;;8.00;;
76640;SDS011;65538;50.798;6.064;2023-03-01T01:09:53;15.13;;;7.60;;
76640;SDS011;65538;50.798;6.064;2023-03-01T01:12:19;16.00;;;7.63;;
76640;SDS011;65538;50.798;6.064;2023-03-01T01:14:44;17.10;;;8.83;;
76640;SDS011;65538;50.798;6.064;2023-03-01T01:17:09;18.30;;;8.07;;
76640;SDS011;65538;50.798;6.064;2023-03-01T01:19:34;17.33;;;8.70;;
76640;SDS011;65538;50.798;6.064;2023-03-01T01:22:00;17.10;;;8.35;;
76640;SDS011;65538;50.798;6.064;2023-03-01T01:24:25;16.43;;;7.57;;
76640;SDS011;65538;50.798;6.064;2023-03-01T01:26:50;15.33;;;7.70;;
76640;SDS011;65538;50.798;6.064;2023-03-01T01:29:16;14.53;;;7.93;;
76640;SDS011;65538;50.798;6.064;2023-03-01T01:31:41;14.03;;;7.57;;
76640;SDS011;65538;50.798;6.064;2023-03-01T01:34:07;15.70;;;7.40;;
76640;SDS011;65538;50.798;6.064;2023-03-01T01:36:33;14.35;;;6.82;;
76640;SDS011;65538;50.798;6.064;2023-03-01T01:38:58;17.60;;;7.15;;
76640;SDS011;65538;50.798;6.064;2023-03-01T01:41:24;18.58;;;7.75;;
76640;SDS011;65538;50.798;6.064;2023-03-01T01:44:09;15.93;;;8.27;;
76640;SDS011;65538;50.798;6.064;2023-03-01T01:46:46;17.88;;;7.35;;
76640;SDS011;65538;50.798;6.064;2023-03-01T01:51:40;15.05;;;7.60;;
76640;SDS011;65538;50.798;6.064;2023-03-01T01:54:27;16.98;;;6.80;;
76640;SDS011;65538;50.798;6.064;2023-03-01T01:56:55;17.35;;;7.53;;
76640;SDS011;65538;50.798;6.064;2023-03-01T01:59:23;13.88;;;7.25;;
76640;SDS011;65538;50.798;6.064;2023-03-01T02:01:50;16.38;;;8.23;;
76640;SDS011;65538;50.798;6.064;2023-03-01T02:04:15;13.80;;;7.18;;
76640;SDS011;65538;50.798;6.064;2023-03-01T02:06:41;15.80;;;7.53;;
76640;SDS011;65538;50.798;6.064;2023-03-01T02:09:13;18.27;;;7.55;;
76640;SDS011;65538;50.798;6.064;2023-03-01T02:11:40;15.52;;;7.45;;
76640;SDS011;65538;50.798;6.064;2023-03-01T02:14:06;16.38;;;7.25;;
76640;SDS011;65538;50.798;6.064;2023-03-01T02:16:31;15.53;;;7.77;;
76640;SDS011;65538;50.798;6.064;2023-03-01T02:18:57;14.67;;;7.20;;
76640;SDS011;65538;50.798;6.064;2023-03-01T02:21:42;15.93;;;7.93;;
76640;SDS011;65538;50.798;6.064;2023-03-01T02:26:48;16.88;;;7.40;;
76640;SDS011;65538;50.798;6.064;2023-03-01T02:29:15;18.75;;;7.65;;
76640;SDS011;65538;50.798;6.064;2023-03-01T02:31:40;15.43;;;8.23;;
76640;SDS011;65538;50.798;6.064;2023-03-01T02:34:12;16.52;;;7.88;;
76640;SDS011;65538;50.798;6.064;2023-03-01T02:36:38;17.05;;;7.93;;
76640;SDS011;65538;50.798;6.064;2023-03-01T02:39:05;17.30;;;7.78;;
76640;SDS011;65538;50.798;6.064;2023-03-01T02:41:34;17.00;;;7.07;;
76640;SDS011;65538;50.798;6.064;2023-03-01T02:44:00;17.63;;;7.60;;
76640;SDS011;65538;50.798;6.064;2023-03-01T02:46:26;13.25;;;7.53;;
76640;SDS011;65538;50.798;6.064;2023-03-01T02:48:52;18.30;;;7.70;;
76640;SDS011;65538;50.798;6.064;2023-03-01T02:56:20;18.38;;;8.30;;
76640;SDS011;65538;50.798;6.064;2023-03-01T02:58:45;16.23;;;7.28;;
76640;SDS011;65538;50.798;6.064;2023-03-01T03:01:13;14.52;;;7.38;;
76640;SDS011;65538;50.798;6.064;2023-03-01T03:03:40;15.35;;;7.63;;
76640;SDS011;65538;50.798;6.064;2023-03-01T03:06:05;17.35;;;9.00;;
76640;SDS011;65538;50.798;6.064;2023-03-01T03:08:30;17.03;;;7.63;;
76640;SDS011;65538;50.798;6.064;2023-03-01T03:10:55;18.37;;;8.27;;
76640;SDS011;65538;50.798;6.064;2023-03-01T03:13:21;21.00;;;8.10;;
76640;SDS011;65538;50.798;6.064;2023-03-01T03:15:47;15.70;;;8.05;;
76640;SDS011;65538;50.798;6.064;2023-03-01T03:18:13;16.20;;;8.07;;
76640;SDS011;65538;50.798;6.064;2023-03-01T03:20:39;18.27;;;8.50;;
76640;SDS011;65538;50.798;6.064;2023-03-01T03:23:05;15.00;;;7.25;;
76640;SDS011;65538;50.798;6.064;2023-03-01T03:25:30;18.53;;;7.20;;
76640;SDS011;65538;50.798;6.064;2023-03-01T03:27:55;16.50;;;7.73;;
76640;SDS011;65538;50.798;6.064;2023-03-01T03:30:30;17.17;;;8.98;;
76640;SDS011;65538;50.798;6.064;2023-03-01T03:32:56;13.65;;;7.18;;
76640;SDS011;65538;50.798;6.064;2023-03-01T03:35:23;19.30;;;8.02;;
76640;SDS011;65538;50.798;6.064;2023-03-01T03:37:49;15.27;;;8.02;;
76640;SDS011;65538;50.798;6.064;2023-03-01T03:40:26;24.38;;;8.23;;
76640;SDS011;65538;50.798;6.064;2023-03-01T03:42:52;14.07;;;7.63;;
76640;SDS011;65538;50.798;6.064;2023-03-01T03:45:17;17.67;;;8.20;;
76640;SDS011;65538;50.798;6.064;2023-03-01T03:47:43;17.50;;;8.55;;
76640;SDS011;65538;50.798;6.064;2023-03-01T03:50:09;16.83;;;8.10;;
76640;SDS011;65538;50.798;6.064;2023-03-01T03:52:35;15.10;;;8.40;;
76640;SDS011;65538;50.798;6.064;2023-03-01T03:55:00;20.83;;;8.30;;
76640;SDS011;65538;50.798;6.064;2023-03-01T03:57:25;16.80;;;8.00;;
76640;SDS011;65538;50.798;6.064;2023-03-01T03:59:50;17.27;;;8.83;;
76640;SDS011;65538;50.798;6.064;2023-03-01T04:02:15;19.23;;;8.83;;
76640;SDS011;65538;50.798;6.064;2023-03-01T04:04:47;15.80;;;8.27;;
76640;SDS011;65538;50.798;6.064;2023-03-01T04:07:14;16.63;;;7.95;;
76640;SDS011;65538;50.798;6.064;2023-03-01T04:09:39;19.37;;;9.10;;
76640;SDS011;65538;50.798;6.064;2023-03-01T04:12:04;18.70;;;8.67;;
76640;SDS011;65538;50.798;6.064;2023-03-01T04:14:30;17.90;;;8.77;;
76640;SDS011;65538;50.798;6.064;2023-03-01T04:16:55;20.20;;;9.10;;
76640;SDS011;65538;50.798;6.064;2023-03-01T04:19:20;21.17;;;9.40;;
76640;SDS011;65538;50.798;6.064;2023-03-01T04:21:45;19.53;;;8.67;;
76640;SDS011;65538;50.798;6.064;2023-03-01T04:24:10;16.17;;;7.80;;
76640;SDS011;65538;50.798;6.064;2023-03-01T04:26:36;16.87;;;8.17;;
76640;SDS011;65538;50.798;6.064;2023-03-01T04:29:01;19.47;;;8.83;;
76640;SDS011;65538;50.798;6.064;2023-03-01T04:31:26;20.90;;;8.57;;
76640;SDS011;65538;50.798;6.064;2023-03-01T04:33:52;17.25;;;8.93;;
76640;SDS011;65538;50.798;6.064;2023-03-01T04:36:18;17.20;;;8.15;;
76640;SDS011;65538;50.798;6.064;2023-03-01T04:38:44;17.27;;;8.32;;
76640;SDS011;65538;50.798;6.064;2023-03-01T04:41:12;20.27;;;7.90;;
76640;SDS011;65538;50.798;6.064;2023-03-01T04:43:38;15.93;;;8.43;;
76640;SDS011;65538;50.798;6.064;2023-03-01T04:46:07;18.17;;;9.07;;
76640;SDS011;65538;50.798;6.064;2023-03-01T04:48:34;20.40;;;8.93;;
76640;SDS011;65538;50.798;6.064;2023-03-01T04:50:59;16.20;;;8.07;;
76640;SDS011;65538;50.798;6.064;2023-03-01T04:53:25;19.63;;;8.57;;
76640;SDS011;65538;50.798;6.064;2023-03-01T04:55:50;15.10;;;7.85;;
76640;SDS011;65538;50.798;6.064;2023-03-01T04:58:15;15.33;;;8.33;;
76640;SDS011;65538;50.798;6.064;2023-03-01T05:00:41;17.23;;;8.50;;
76640;SDS011;65538;50.798;6.064;2023-03-01T05:03:06;16.63;;;9.13;;
76640;SDS011;65538;50.798;6.064;2023-03-01T05:05:34;19.77;;;8.67;;
76640;SDS011;65538;50.798;6.064;2023-03-01T05:08:00;19.90;;;8.18;;
76640;SDS011;65538;50.798;6.064;2023-03-01T05:10:27;18.50;;;8.35;;
76640;SDS011;65538;50.798;6.064;2023-03-01T05:12:54;17.85;;;7.80;;
76640;SDS011;65538;50.798;6.064;2023-03-01T05:15:19;20.20;;;8.80;;
76640;SDS011;65538;50.798;6.064;2023-03-01T05:17:46;14.75;;;8.32;;
76640;SDS011;65538;50.798;6.064;2023-03-01T05:20:11;17.37;;;8.80;;
76640;SDS011;65538;50.798;6.064;2023-03-01T05:22:37;19.90;;;7.72;;
76640;SDS011;65538;50.798;6.064;2023-03-01T05:25:02;17.80;;;8.10;;
76640;SDS011;65538;50.798;6.064;2023-03-01T05:27:28;20.42;;;8.10;;
76640;SDS011;65538;50.798;6.064;2023-03-01T05:29:54;17.50;;;8.95;;
76640;SDS011;65538;50.798;6.064;2023-03-01T05:32:19;16.65;;;7.95;;
76640;SDS011;65538;50.798;6.064;2023-03-01T05:34:45;18.63;;;8.30;;
76640;SDS011;65538;50.798;6.064;2023-03-01T05:37:11;21.20;;;9.35;;
76640;SDS011;65538;50.798;6.064;2023-03-01T05:39:36;45.72;;;16.60;;
76640;SDS011;65538;50.798;6.064;2023-03-01T05:42:01;25.77;;;11.63;;
76640;SDS011;65538;50.798;6.064;2023-03-01T05:44:28;18.40;;;7.87;;
76640;SDS011;65538;50.798;6.064;2023-03-01T05:46:53;20.02;;;8.70;;
76640;SDS011;65538;50.798;6.064;2023-03-01T05:49:19;22.80;;;9.00;;
76640;SDS011;65538;50.798;6.064;2023-03-01T05:51:48;24.05;;;10.20;;
76640;SDS011;65538;50.798;6.064;2023-03-01T05:54:13;26.70;;;10.45;;
76640;SDS011;65538;50.798;6.064;2023-03-01T05:56:38;18.07;;;9.37;;
76640;SDS011;65538;50.798;6.064;2023-03-01T05:59:04;19.17;;;8.10;;
76640;SDS011;65538;50.798;6.064;2023-03-01T06:01:33;17.27;;;8.25;;
76640;SDS011;65538;50.798;6.064;2023-03-01T06:03:58;20.42;;;8.73;;
76640;SDS011;65538;50.798;6.064;2023-03-01T06:06:24;18.47;;;9.10;;
76640;SDS011;65538;50.798;6.064;2023-03-01T06:08:49;18.48;;;7.82;;
76640;SDS011;65538;50.798;6.064;2023-03-01T06:11:14;20.17;;;10.05;;
76640;SDS011;65538;50.798;6.064;2023-03-01T06:13:44;19.20;;;8.43;;
76640;SDS011;65538;50.798;6.064;2023-03-01T06:16:09;23.15;;;9.57;;
76640;SDS011;65538;50.798;6.064;2023-03-01T06:18:35;17.60;;;8.93;;
76640;SDS011;65538;50.798;6.064;2023-03-01T06:21:00;21.15;;;9.38;;
76640;SDS011;65538;50.798;6.064;2023-03-01T06:23:26;22.58;;;10.10;;
76640;SDS011;65538;50.798;6.064;2023-03-01T06:25:51;24.65;;;10.68;;
76640;SDS011;65538;50.798;6.064;2023-03-01T06:28:17;28.90;;;9.98;;
76640;SDS011;65538;50.798;6.064;2023-03-01T06:30:42;24.80;;;9.27;;
76640;SDS011;65538;50.798;6.064;2023-03-01T06:33:07;21.35;;;10.32;;
76640;SDS011;65538;50.798;6.064;2023-03-01T06:35:33;27.37;;;11.90;;
76640;SDS011;65538;50.798;6.064;2023-03-01T06:37:59;22.65;;;9.65;;
76640;SDS011;65538;50.798;6.064;2023-03-01T06:40:24;22.83;;;9.77;;
76640;SDS011;65538;50.798;6.064;2023-03-01T06:42:50;19.40;;;9.45;;
76640;SDS011;65538;50.798;6.064;2023-03-01T06:45:16;21.60;;;10.35;;
76640;SDS011;65538;50.798;6.064;2023-03-01T06:47:41;23.60;;;10.52;;
76640;SDS011;65538;50.798;6.064;2023-03-01T06:50:07;22.07;;;9.90;;
76640;SDS011;65538;50.798;6.064;2023-03-01T06:52:32;29.83;;;10.93;;
76640;SDS011;65538;50.798;6.064;2023-03-01T06:54:58;20.93;;;11.00;;
76640;SDS011;65538;50.798;6.064;2023-03-01T06:57:23;25.17;;;10.35;;
76640;SDS011;65538;50.798;6.064;2023-03-01T06:59:48;22.50;;;10.50;;
76640;SDS011;65538;50.798;6.064;2023-03-01T07:02:14;26.07;;;10.90;;
76640;SDS011;65538;50.798;6.064;2023-03-01T07:04:40;21.85;;;10.50;;
76640;SDS011;65538;50.798;6.064;2023-03-01T07:07:05;20.00;;;9.93;;
76640;SDS011;65538;50.798;6.064;2023-03-01T07:09:30;24.35;;;9.77;;
76640;SDS011;65538;50.798;6.064;2023-03-01T07:11:56;21.55;;;11.05;;
76640;SDS011;65538;50.798;6.064;2023-03-01T07:14:21;24.50;;;11.20;;
76640;SDS011;65538;50.798;6.064;2023-03-01T07:16:49;22.10;;;11.15;;
76640;SDS011;65538;50.798;6.064;2023-03-01T07:19:14;21.97;;;10.17;;
76640;SDS011;65538;50.798;6.064;2023-03-01T07:21:39;25.63;;;10.10;;
76640;SDS011;65538;50.798;6.064;2023-03-01T07:24:06;24.13;;;10.43;;
76640;SDS011;65538;50.798;6.064;2023-03-01T07:26:31;19.63;;;9.88;;
76640;SDS011;65538;50.798;6.064;2023-03-01T07:28:58;23.07;;;9.83;;
76640;SDS011;65538;50.798;6.064;2023-03-01T07:31:24;21.45;;;10.10;;
76640;SDS011;65538;50.798;6.064;2023-03-01T07:34:02;22.38;;;11.65;;
76640;SDS011;65538;50.798;6.064;2023-03-01T07:36:27;22.50;;;10.50;;
76640;SDS011;65538;50.798;6.064;2023-03-01T07:38:52;30.07;;;11.83;;
76640;SDS011;65538;50.798;6.064;2023-03-01T07:41:17;27.10;;;11.47;;
76640;SDS011;65538;50.798;6.064;2023-03-01T07:43:43;28.17;;;11.00;;
76640;SDS011;65538;50.798;6.064;2023-03-01T07:46:08;23.87;;;10.30;;
76640;SDS011;65538;50.798;6.064;2023-03-01T07:48:33;25.87;;;10.37;;
76640;SDS011;65538;50.798;6.064;2023-03-01T07:50:59;25.45;;;11.35;;
76640;SDS011;65538;50.798;6.064;2023-03-01T07:53:24;26.25;;;11.98;;
76640;SDS011;65538;50.798;6.064;2023-03-01T07:55:50;25.93;;;11.07;;
76640;SDS011;65538;50.798;6.064;2023-03-01T07:58:15;25.87;;;11.20;;
76640;SDS011;65538;50.798;6.064;2023-03-01T08:00:40;27.60;;;11.77;;
76640;SDS011;65538;50.798;6.064;2023-03-01T08:03:05;20.67;;;10.00;;
76640;SDS011;65538;50.798;6.064;2023-03-01T08:05:30;29.87;;;11.20;;
76640;SDS011;65538;50.798;6.064;2023-03-01T08:07:57;28.55;;;11.70;;
76640;SDS011;65538;50.798;6.064;2023-03-01T08:10:22;24.47;;;11.83;;
76640;SDS011;65538;50.798;6.064;2023-03-01T08:12:47;30.50;;;11.63;;
76640;SDS011;65538;50.798;6.064;2023-03-01T08:15:12;26.50;;;11.13;;
76640;SDS011;65538;50.798;6.064;2023-03-01T08:17:38;21.97;;;10.50;;
76640;SDS011;65538;50.798;6.064;2023-03-01T08:20:03;24.57;;;11.97;;
76640;SDS011;65538;50.798;6.064;2023-03-01T08:22:31;27.35;;;12.30;;
76640;SDS011;65538;50.798;6.064;2023-03-01T08:24:56;23.13;;;11.07;;
76640;SDS011;65538;50.798;6.064;2023-03-01T08:27:21;21.90;;;10.63;;
76640;SDS011;65538;50.798;6.064;2023-03-01T08:29:46;31.63;;;13.30;;
76640;SDS011;65538;50.798;6.064;2023-03-01T08:32:12;25.10;;;11.27;;
76640;SDS011;65538;50.798;6.064;2023-03-01T08:34:37;23.00;;;9.70;;
76640;SDS011;65538;50.798;6.064;2023-03-01T08:37:02;25.53;;;11.20;;
76640;SDS011;65538;50.798;6.064;2023-03-01T08:39:27;22.73;;;10.00;;
76640;SDS011;65538;50.798;6.064;2023-03-01T08:41:53;21.77;;;10.40;;
76640;SDS011;65538;50.798;6.064;2023-03-01T08:44:18;25.83;;;11.40;;
76640;SDS011;65538;50.798;6.064;2023-03-01T08:46:44;23.63;;;10.52;;
76640;SDS011;65538;50.798;6.064;2023-03-01T08:49:14;25.08;;;11.38;;
76640;SDS011;65538;50.798;6.064;2023-03-01T08:51:40;30.80;;;13.50;;
76640;SDS011;65538;50.798;6.064;2023-03-01T08:54:26;27.80;;;10.47;;
76640;SDS011;65538;50.798;6.064;2023-03-01T08:56:50;23.33;;;11.52;;
76640;SDS011;65538;50.798;6.064;2023-03-01T08:59:16;25.90;;;11.37;;
76640;SDS011;65538;50.798;6.064;2023-03-01T09:01:42;28.95;;;10.82;;
76640;SDS011;65538;50.798;6.064;2023-03-01T09:04:08;27.00;;;11.50;;
76640;SDS011;65538;50.798;6.064;2023-03-01T09:06:34;21.88;;;9.45;;
76640;SDS011;65538;50.798;6.064;2023-03-01T09:08:59;24.33;;;10.20;;
76640;SDS011;65538;50.798;6.064;2023-03-01T09:11:24;23.58;;;10.43;;
76640;SDS011;65538;50.798;6.064;2023-03-01T09:13:50;23.10;;;10.77;;
76640;SDS011;65538;50.798;6.064;2023-03-01T09:16:16;31.65;;;9.82;;
76640;SDS011;65538;50.798;6.064;2023-03-01T09:18:42;24.50;;;11.73;;
76640;SDS011;65538;50.798;6.064;2023-03-01T09:21:12;28.10;;;13.10;;
76640;SDS011;65538;50.798;6.064;2023-03-01T09:23:39;25.13;;;11.20;;
76640;SDS011;65538;50.798;6.064;2023-03-01T09:26:05;24.77;;;11.23;;
76640;SDS011;65538;50.798;6.064;2023-03-01T09:28:31;24.52;;;11.00;;
76640;SDS011;65538;50.798;6.064;2023-03-01T09:30:59;21.80;;;9.95;;
76640;SDS011;65538;50.798;6.064;2023-03-01T09:33:25;21.08;;;9.77;;
76640;SDS011;65538;50.798;6.064;2023-03-01T09:35:55;30.98;;;12.35;;
76640;SDS011;65538;50.798;6.064;2023-03-01T09:38:20;21.00;;;10.07;;
76640;SDS011;65538;50.798;6.064;2023-03-01T09:40:45;21.40;;;10.07;;
76640;SDS011;65538;50.798;6.064;2023-03-01T09:43:57;24.48;;;10.27;;
76640;SDS011;65538;50.798;6.064;2023-03-01T09:45:59;31.67;;;12.50;;
76640;SDS011;65538;50.798;6.064;2023-03-01T09:48:26;18.65;;;8.57;;
76640;SDS011;65538;50.798;6.064;2023-03-01T09:50:52;24.42;;;11.63;;
76640;SDS011;65538;50.798;6.064;2023-03-01T09:53:51;27.57;;;11.40;;
76640;SDS011;65538;50.798;6.064;2023-03-01T09:56:19;25.48;;;12.23;;
76640;SDS011;65538;50.798;6.064;2023-03-01T10:06:24;24.63;;;11.60;;
76640;SDS011;65538;50.798;6.064;2023-03-01T10:08:56;22.33;;;12.53;;
76640;SDS011;65538;50.798;6.064;2023-03-01T10:13:56;25.25;;;11.35;;
76640;SDS011;65538;50.798;6.064;2023-03-01T10:18:56;27.67;;;11.88;;
76640;SDS011;65538;50.798;6.064;2023-03-01T10:21:23;25.75;;;10.45;;
76640;SDS011;65538;50.798;6.064;2023-03-01T10:23:51;26.00;;;12.95;;
76640;SDS011;65538;50.798;6.064;2023-03-01T10:29:07;28.95;;;13.05;;
76640;SDS011;65538;50.798;6.064;2023-03-01T10:31:36;24.40;;;11.48;;
76640;SDS011;65538;50.798;6.064;2023-03-01T10:36:28;28.13;;;12.70;;
76640;SDS011;65538;50.798;6.064;2023-03-01T10:38:57;20.95;;;10.00;;
76640;SDS011;65538;50.798;6.064;2023-03-01T10:41:23;21.20;;;8.68;;
76640;SDS011;65538;50.798;6.064;2023-03-01T10:43:50;21.27;;;9.07;;
76640;SDS011;65538;50.798;6.064;2023-03-01T10:48:55;21.48;;;10.65;;
76640;SDS011;65538;50.798;6.064;2023-03-01T10:51:29;21.73;;;10.82;;
76640;SDS011;65538;50.798;6.064;2023-03-01T10:53:54;22.10;;;10.33;;
76640;SDS011;65538;50.798;6.064;2023-03-01T10:56:20;17.90;;;9.60;;
76640;SDS011;65538;50.798;6.064;2023-03-01T10:58:58;22.23;;;10.67;;
76640;SDS011;65538;50.798;6.064;2023-03-01T11:01:26;21.83;;;10.13;;
76640;SDS011;65538;50.798;6.064;2023-03-01T11:04:25;21.58;;;11.43;;
76640;SDS011;65538;50.798;6.064;2023-03-01T11:06:43;22.58;;;9.90;;
76640;SDS011;65538;50.798;6.064;2023-03-01T11:09:22;23.52;;;10.52;;
76640;SDS011;65538;50.798;6.064;2023-03-01T11:11:52;18.77;;;10.00;;
76640;SDS011;65538;50.798;6.064;2023-03-01T11:14:20;23.50;;;10.93;;
76640;SDS011;65538;50.798;6.064;2023-03-01T11:16:46;19.88;;;10.35;;
76640;SDS011;65538;50.798;6.064;2023-03-01T11:21:41;17.57;;;9.90;;
76640;SDS011;65538;50.798;6.064;2023-03-01T11:24:11;20.65;;;9.10;;
76640;SDS011;65538;50.798;6.064;2023-03-01T11:26:38;21.98;;;10.82;;
76640;SDS011;65538;50.798;6.064;2023-03-01T11:29:06;19.77;;;9.27;;
76640;SDS011;65538;50.798;6.064;2023-03-01T11:31:35;17.98;;;9.38;;
76640;SDS011;65538;50.798;6.064;2023-03-01T11:34:06;20.20;;;11.05;;
76640;SDS011;65538;50.798;6.064;2023-03-01T11:36:47;21.15;;;10.50;;
76640;SDS011;65538;50.798;6.064;2023-03-01T11:39:17;20.50;;;9.50;;
76640;SDS011;65538;50.798;6.064;2023-03-01T11:44:19;19.10;;;10.23;;
76640;SDS011;65538;50.798;6.064;2023-03-01T11:47:02;20.73;;;9.77;;
76640;SDS011;65538;50.798;6.064;2023-03-01T12:02:52;25.38;;;11.00;;
76640;SDS011;65538;50.798;6.064;2023-03-01T12:10:26;18.73;;;9.83;;
76640;SDS011;65538;50.798;6.064;2023-03-01T12:15:33;22.55;;;12.20;;
76640;SDS011;65538;50.798;6.064;2023-03-01T12:20:32;21.23;;;10.88;;
76640;SDS011;65538;50.798;6.064;2023-03-01T12:28:04;21.60;;;10.77;;
76640;SDS011;65538;50.798;6.064;2023-03-01T12:33:26;19.65;;;11.40;;
76640;SDS011;65538;50.798;6.064;2023-03-01T12:36:19;22.58;;;11.30;;
76640;SDS011;65538;50.798;6.064;2023-03-01T12:49:13;15.10;;;8.88;;
76640;SDS011;65538;50.798;6.064;2023-03-01T12:51:40;19.20;;;9.80;;
76640;SDS011;65538;50.798;6.064;2023-03-01T12:54:19;21.20;;;11.73;;
76640;SDS011;65538;50.798;6.064;2023-03-01T12:56:46;19.13;;;10.02;;
76640;SDS011;65538;50.798;6.064;2023-03-01T13:04:40;23.55;;;11.20;;
76640;SDS011;65538;50.798;6.064;2023-03-01T13:12:03;15.57;;;8.95;;
76640;SDS011;65538;50.798;6.064;2023-03-01T13:16:56;19.52;;;9.70;;
76640;SDS011;65538;50.798;6.064;2023-03-01T13:19:23;17.87;;;9.33;;
76640;SDS011;65538;50.798;6.064;2023-03-01T13:21:49;20.52;;;10.00;;
76640;SDS011;65538;50.798;6.064;2023-03-01T13:24:29;18.65;;;10.30;;
76640;SDS011;65538;50.798;6.064;2023-03-01T13:34:44;17.10;;;9.50;;
76640;SDS011;65538;50.798;6.064;2023-03-01T13:37:13;15.40;;;8.95;;
76640;SDS011;65538;50.798;6.064;2023-03-01T13:39:43;15.50;;;9.55;;
76640;SDS011;65538;50.798;6.064;2023-03-01T13:44:52;13.80;;;7.78;;
76640;SDS011;65538;50.798;6.064;2023-03-01T13:47:17;17.43;;;8.13;;
76640;SDS011;65538;50.798;6.064;2023-03-01T13:52:54;17.48;;;9.55;;
76640;SDS011;65538;50.798;6.064;2023-03-01T13:55:00;16.15;;;9.57;;
76640;SDS011;65538;50.798;6.064;2023-03-01T13:57:35;16.95;;;9.65;;
76640;SDS011;65538;50.798;6.064;2023-03-01T14:00:02;14.05;;;7.78;;
76640;SDS011;65538;50.798;6.064;2023-03-01T14:02:29;16.13;;;8.52;;
76640;SDS011;65538;50.798;6.064;2023-03-01T14:04:57;14.03;;;8.17;;
76640;SDS011;65538;50.798;6.064;2023-03-01T14:07:23;16.35;;;8.32;;
76640;SDS011;65538;50.798;6.064;2023-03-01T14:09:54;14.43;;;8.05;;
76640;SDS011;65538;50.798;6.064;2023-03-01T14:14:52;20.33;;;9.00;;
76640;SDS011;65538;50.798;6.064;2023-03-01T14:17:24;16.88;;;8.95;;
76640;SDS011;65538;50.798;6.064;2023-03-01T14:19:55;15.13;;;8.95;;
76640;SDS011;65538;50.798;6.064;2023-03-01T14:24:51;18.43;;;9.13;;
76640;SDS011;65538;50.798;6.064;2023-03-01T14:27:17;14.80;;;9.65;;
76640;SDS011;65538;50.798;6.064;2023-03-01T14:29:43;17.23;;;8.65;;
76640;SDS011;65538;50.798;6.064;2023-03-01T14:32:27;19.02;;;8.27;;
76640;SDS011;65538;50.798;6.064;2023-03-01T14:34:52;15.18;;;9.52;;
76640;SDS011;65538;50.798;6.064;2023-03-01T14:39:46;16.40;;;9.73;;
76640;SDS011;65538;50.798;6.064;2023-03-01T14:42:12;13.50;;;8.30;;
76640;SDS011;65538;50.798;6.064;2023-03-01T14:44:38;15.48;;;8.80;;
76640;SDS011;65538;50.798;6.064;2023-03-01T14:47:05;21.02;;;9.40;;
76640;SDS011;65538;50.798;6.064;2023-03-01T14:49:30;16.60;;;9.32;;
76640;SDS011;65538;50.798;6.064;2023-03-01T14:52:04;17.77;;;8.85;;
76640;SDS011;65538;50.798;6.064;2023-03-01T14:57:01;14.32;;;9.18;;
76640;SDS011;65538;50.798;6.064;2023-03-01T14:59:27;20.83;;;9.43;;
76640;SDS011;65538;50.798;6.064;2023-03-01T15:01:53;12.82;;;8.18;;
76640;SDS011;65538;50.798;6.064;2023-03-01T15:04:18;15.90;;;8.93;;
76640;SDS011;65538;50.798;6.064;2023-03-01T15:06:44;16.05;;;8.13;;
76640;SDS011;65538;50.798;6.064;2023-03-01T15:09:12;14.07;;;8.38;;
76640;SDS011;65538;50.798;6.064;2023-03-01T15:11:42;20.80;;;8.07;;
76640;SDS011;65538;50.798;6.064;2023-03-01T15:16:53;18.50;;;8.15;;
76640;SDS011;65538;50.798;6.064;2023-03-01T15:19:18;13.23;;;7.57;;
76640;SDS011;65538;50.798;6.064;2023-03-01T15:21:44;13.55;;;8.02;;
76640;SDS011;65538;50.798;6.064;2023-03-01T15:26:44;12.25;;;7.13;;
76640;SDS011;65538;50.798;6.064;2023-03-01T15:29:15;12.25;;;7.70;;
76640;SDS011;65538;50.798;6.064;2023-03-01T15:31:41;14.18;;;7.38;;
76640;SDS011;65538;50.798;6.064;2023-03-01T15:34:19;13.93;;;7.00;;
76640;SDS011;65538;50.798;6.064;2023-03-01T15:36:46;14.15;;;7.65;;
76640;SDS011;65538;50.798;6.064;2023-03-01T15:39:26;16.00;;;7.20;;
76640;SDS011;65538;50.798;6.064;2023-03-01T15:41:52;14.07;;;6.75;;
76640;SDS011;65538;50.798;6.064;2023-03-01T15:44:39;12.10;;;7.93;;
76640;SDS011;65538;50.798;6.064;2023-03-01T15:47:05;17.90;;;7.80;;
76640;SDS011;65538;50.798;6.064;2023-03-01T15:49:40;12.25;;;6.72;;
76640;SDS011;65538;50.798;6.064;2023-03-01T15:52:10;12.82;;;7.03;;
76640;SDS011;65538;50.798;6.064;2023-03-01T15:54:38;15.63;;;7.80;;
76640;SDS011;65538;50.798;6.064;2023-03-01T15:57:05;15.73;;;8.45;;
76640;SDS011;65538;50.798;6.064;2023-03-01T15:59:30;14.33;;;8.27;;
76640;SDS011;65538;50.798;6.064;2023-03-01T16:01:55;14.20;;;7.03;;
76640;SDS011;65538;50.798;6.064;2023-03-01T16:04:20;16.57;;;7.93;;
76640;SDS011;65538;50.798;6.064;2023-03-01T16:06:47;13.77;;;7.13;;
76640;SDS011;65538;50.798;6.064;2023-03-01T16:09:18;12.63;;;6.93;;
76640;SDS011;65538;50.798;6.064;2023-03-01T16:11:44;14.07;;;7.90;;
76640;SDS011;65538;50.798;6.064;2023-03-01T16:14:09;12.90;;;6.97;;
76640;SDS011;65538;50.798;6.064;2023-03-01T16:16:34;14.87;;;7.10;;
76640;SDS011;65538;50.798;6.064;2023-03-01T16:19:00;15.45;;;7.10;;
76640;SDS011;65538;50.798;6.064;2023-03-01T16:21:25;17.27;;;7.20;;
76640;SDS011;65538;50.798;6.064;2023-03-01T16:23:51;14.63;;;7.10;;
76640;SDS011;65538;50.798;6.064;2023-03-01T16:26:16;15.32;;;7.18;;
76640;SDS011;65538;50.798;6.064;2023-03-01T16:28:42;13.43;;;5.90;;
76640;SDS011;65538;50.798;6.064;2023-03-01T16:31:07;14.27;;;7.00;;